createdAt,value
2023-11-05T00:00:29.550Z,963.01
2023-11-05T00:01:29.613Z,963.06
2023-11-05T00:02:29.576Z,963.05
2023-11-05T00:03:29.566Z,963.00
2023-11-05T00:04:29.566Z,963.02
2023-11-05T00:05:29.542Z,963.04
2023-11-05T00:06:29.495Z,963.00
2023-11-05T00:07:29.564Z,962.98
2023-11-05T00:08:29.514Z,963.00
2023-11-05T00:09:29.446Z,962.89
2023-11-05T00:10:29.483Z,962.98
2023-11-05T00:11:29.416Z,962.94
2023-11-05T00:12:29.418Z,962.96
2023-11-05T00:13:29.445Z,963.00
2023-11-05T00:14:29.401Z,963.07
2023-11-05T00:15:29.387Z,962.91
2023-11-05T00:16:29.426Z,962.89
2023-11-05T00:17:29.376Z,962.89
2023-11-05T00:18:29.452Z,962.80
2023-11-05T00:19:29.403Z,962.91
2023-11-05T00:20:29.390Z,962.83
2023-11-05T00:21:29.364Z,962.79
2023-11-05T00:22:29.424Z,962.80
2023-11-05T00:23:29.296Z,962.72
2023-11-05T00:24:29.328Z,962.70
2023-11-05T00:25:29.289Z,962.84
2023-11-05T00:26:29.277Z,962.66
2023-11-05T00:27:29.308Z,962.71
2023-11-05T00:28:29.403Z,962.73
2023-11-05T00:29:29.217Z,962.73
2023-11-05T00:30:29.269Z,962.75
2023-11-05T00:31:29.227Z,962.77
2023-11-05T00:32:29.372Z,962.77
2023-11-05T00:33:29.311Z,962.70
2023-11-05T00:34:29.327Z,962.70
2023-11-05T00:35:29.220Z,962.74
2023-11-05T00:36:29.214Z,962.79
2023-11-05T00:37:29.173Z,962.77
2023-11-05T00:38:29.123Z,962.76
2023-11-05T00:39:29.125Z,962.76
2023-11-05T00:40:29.186Z,962.75
2023-11-05T00:41:29.144Z,962.76
2023-11-05T00:42:29.113Z,962.78
2023-11-05T00:43:29.118Z,962.64
2023-11-05T00:44:29.118Z,962.53
2023-11-05T00:45:29.065Z,962.49
2023-11-05T00:46:29.131Z,962.51
2023-11-05T00:47:29.187Z,962.45
2023-11-05T00:48:29.041Z,962.53
2023-11-05T00:49:29.077Z,962.54
2023-11-05T00:50:29.019Z,962.46
2023-11-05T00:51:29.020Z,962.42
2023-11-05T00:52:29.047Z,962.38
2023-11-05T00:53:28.986Z,962.52
2023-11-05T00:54:28.946Z,962.38
2023-11-05T00:55:28.984Z,962.41
2023-11-05T00:56:28.927Z,962.36
2023-11-05T00:57:28.936Z,962.49
2023-11-05T00:58:28.949Z,962.43
2023-11-05T00:59:28.926Z,962.44
2023-11-05T01:00:28.939Z,962.38
2023-11-05T01:01:28.950Z,962.40
2023-11-05T01:02:28.889Z,962.38
2023-11-05T01:03:28.918Z,962.40
2023-11-05T01:04:28.992Z,962.31
2023-11-05T01:05:28.853Z,962.33
2023-11-05T01:06:28.847Z,962.55
2023-11-05T01:07:28.857Z,962.30
2023-11-05T01:08:28.829Z,962.30
2023-11-05T01:09:28.836Z,962.28
2023-11-05T01:10:28.857Z,962.30
2023-11-05T01:11:28.805Z,962.25
2023-11-05T01:12:28.764Z,962.27
2023-11-05T01:13:28.822Z,962.27
2023-11-05T01:14:28.800Z,962.21
2023-11-05T01:15:28.754Z,962.15
2023-11-05T01:16:28.785Z,962.18
2023-11-05T01:17:28.766Z,962.20
2023-11-05T01:18:28.766Z,962.21
2023-11-05T01:19:28.728Z,962.30
2023-11-05T01:20:28.715Z,962.29
2023-11-05T01:21:28.696Z,962.21
2023-11-05T01:22:28.726Z,962.20
2023-11-05T01:23:28.681Z,962.14
2023-11-05T01:24:28.673Z,962.16
2023-11-05T01:25:28.641Z,962.22
2023-11-05T01:26:28.652Z,962.21
2023-11-05T01:27:28.718Z,962.26
2023-11-05T01:28:28.646Z,962.21
2023-11-05T01:29:28.624Z,962.03
2023-11-05T01:30:28.605Z,962.07
2023-11-05T01:31:28.742Z,962.00
2023-11-05T01:32:28.586Z,961.97
2023-11-05T01:33:28.594Z,961.94
2023-11-05T01:34:28.629Z,962.02
2023-11-05T01:35:28.552Z,961.92
2023-11-05T01:36:28.500Z,961.85
2023-11-05T01:37:28.535Z,961.83
2023-11-05T01:38:28.515Z,961.76
2023-11-05T01:39:28.534Z,961.85
2023-11-05T01:40:28.525Z,961.76
2023-11-05T01:41:28.507Z,961.73
2023-11-05T01:42:28.480Z,961.75
2023-11-05T01:43:28.472Z,961.72
2023-11-05T01:44:28.458Z,961.72
2023-11-05T01:45:28.450Z,961.77
2023-11-05T01:46:28.504Z,961.74
2023-11-05T01:47:28.475Z,961.65
2023-11-05T01:48:28.443Z,961.65
2023-11-05T01:49:28.386Z,961.59
2023-11-05T01:50:28.373Z,961.58
2023-11-05T01:51:28.405Z,961.69
2023-11-05T01:52:28.393Z,961.61
2023-11-05T01:53:28.363Z,961.56
2023-11-05T01:54:28.354Z,961.54
2023-11-05T01:55:28.361Z,961.51
2023-11-05T01:56:28.330Z,961.44
2023-11-05T01:57:28.317Z,961.29
2023-11-05T01:58:29.050Z,961.38
2023-11-05T01:59:28.377Z,961.31
2023-11-05T02:00:28.291Z,961.29
2023-11-05T02:01:28.308Z,961.30
2023-11-05T02:02:28.282Z,961.38
2023-11-05T02:03:28.362Z,961.27
2023-11-05T02:04:28.355Z,961.35
2023-11-05T02:05:28.455Z,961.35
2023-11-05T02:06:28.243Z,961.38
2023-11-05T02:07:28.254Z,961.33
2023-11-05T02:08:28.196Z,961.36
2023-11-05T02:09:28.231Z,961.19
2023-11-05T02:10:28.205Z,961.31
2023-11-05T02:11:28.171Z,961.09
2023-11-05T02:12:28.179Z,961.40
2023-11-05T02:13:28.208Z,961.09
2023-11-05T02:14:28.297Z,961.11
2023-11-05T02:15:28.140Z,961.08
2023-11-05T02:16:28.147Z,961.00
2023-11-05T02:17:28.214Z,960.93
2023-11-05T02:18:28.192Z,960.95
2023-11-05T02:19:28.146Z,960.91
2023-11-05T02:20:28.062Z,960.73
2023-11-05T02:21:28.089Z,961.00
2023-11-05T02:22:28.126Z,960.83
2023-11-05T02:23:28.030Z,960.93
2023-11-05T02:24:28.045Z,960.85
2023-11-05T02:25:28.126Z,960.68
2023-11-05T02:26:27.996Z,960.74
2023-11-05T02:27:28.018Z,960.73
2023-11-05T02:28:28.028Z,960.72
2023-11-05T02:29:28.017Z,960.64
2023-11-05T02:30:27.992Z,960.75
2023-11-05T02:31:28.016Z,960.69
2023-11-05T02:32:27.934Z,960.81
2023-11-05T02:33:27.928Z,960.65
2023-11-05T02:34:27.997Z,960.71
2023-11-05T02:35:27.915Z,960.60
2023-11-05T02:36:27.918Z,960.60
2023-11-05T02:37:27.912Z,960.62
2023-11-05T02:38:27.873Z,960.69
2023-11-05T02:39:27.866Z,960.74
2023-11-05T02:40:27.948Z,960.67
2023-11-05T02:41:27.879Z,960.65
2023-11-05T02:42:27.846Z,960.68
2023-11-05T02:43:27.888Z,960.61
2023-11-05T02:44:27.844Z,960.66
2023-11-05T02:45:27.799Z,960.81
2023-11-05T02:46:27.898Z,960.63
2023-11-05T02:47:27.818Z,960.67
2023-11-05T02:48:27.811Z,960.65
2023-11-05T02:49:27.762Z,960.80
2023-11-05T02:50:27.738Z,960.75
2023-11-05T02:51:27.739Z,960.60
2023-11-05T02:52:27.806Z,960.54
2023-11-05T02:53:27.918Z,960.67
2023-11-05T02:54:27.716Z,960.67
2023-11-05T02:55:27.771Z,960.56
2023-11-05T02:56:27.691Z,960.56
2023-11-05T02:57:27.684Z,960.76
2023-11-05T02:58:27.682Z,960.62
2023-11-05T02:59:27.676Z,960.58
2023-11-05T03:00:27.653Z,960.49
2023-11-05T03:01:27.729Z,960.51
2023-11-05T03:02:27.824Z,960.45
2023-11-05T03:03:27.724Z,960.69
2023-11-05T03:04:27.669Z,960.44
2023-11-05T03:05:27.681Z,960.56
2023-11-05T03:06:27.589Z,960.44
2023-11-05T03:07:27.618Z,960.56
2023-11-05T03:08:27.573Z,960.40
2023-11-05T03:09:27.533Z,960.33
2023-11-05T03:10:27.616Z,960.27
2023-11-05T03:11:27.526Z,960.20
2023-11-05T03:12:27.554Z,960.40
2023-11-05T03:13:27.527Z,960.30
2023-11-05T03:14:27.492Z,960.43
2023-11-05T03:15:27.505Z,960.37
2023-11-05T03:16:27.496Z,960.38
2023-11-05T03:17:27.556Z,960.40
2023-11-05T03:18:27.516Z,960.34
2023-11-05T03:19:27.500Z,960.47
2023-11-05T03:20:27.439Z,960.43
2023-11-05T03:21:27.429Z,960.35
2023-11-05T03:22:27.435Z,960.41
2023-11-05T03:23:27.413Z,960.38
2023-11-05T03:24:27.399Z,960.46
2023-11-05T03:25:27.394Z,960.46
2023-11-05T03:26:27.359Z,960.47
2023-11-05T03:27:27.355Z,960.53
2023-11-05T03:28:27.377Z,960.33
2023-11-05T03:29:27.354Z,960.35
2023-11-05T03:30:27.334Z,960.32
2023-11-05T03:31:27.325Z,960.49
2023-11-05T03:32:27.293Z,960.37
2023-11-05T03:33:27.361Z,960.12
2023-11-05T03:34:27.358Z,960.38
2023-11-05T03:35:27.287Z,960.56
2023-11-05T03:36:27.263Z,960.36
2023-11-05T03:37:27.309Z,960.38
2023-11-05T03:38:27.266Z,960.56
2023-11-05T03:39:27.240Z,960.45
2023-11-05T03:40:27.310Z,960.36
2023-11-05T03:41:27.230Z,960.38
2023-11-05T03:42:27.209Z,960.52
2023-11-05T03:43:27.236Z,960.38
2023-11-05T03:44:27.221Z,960.37
2023-11-05T03:45:27.167Z,960.39
2023-11-05T03:46:27.234Z,960.49
2023-11-05T03:47:27.180Z,960.38
2023-11-05T03:48:27.189Z,960.40
2023-11-05T03:49:27.149Z,960.45
2023-11-05T03:50:27.106Z,960.40
2023-11-05T03:51:27.115Z,960.45
2023-11-05T03:52:27.128Z,960.54
2023-11-05T03:53:27.078Z,960.47
2023-11-05T03:54:27.097Z,960.49
2023-11-05T03:55:27.266Z,960.49
2023-11-05T03:56:27.110Z,960.51
2023-11-05T03:57:27.050Z,960.36
2023-11-05T03:58:27.067Z,960.42
2023-11-05T03:59:27.030Z,960.39
2023-11-05T04:00:27.001Z,960.46
2023-11-05T04:01:27.061Z,960.44
2023-11-05T04:02:27.005Z,960.53
2023-11-05T04:03:27.093Z,960.42
2023-11-05T04:04:27.022Z,960.37
2023-11-05T04:05:27.059Z,960.44
2023-11-05T04:06:27.048Z,960.40
2023-11-05T04:07:26.996Z,960.23
2023-11-05T04:08:26.911Z,960.31
2023-11-05T04:09:26.913Z,960.34
2023-11-05T04:10:26.955Z,960.35
2023-11-05T04:11:26.900Z,960.35
2023-11-05T04:12:26.871Z,960.36
2023-11-05T04:13:26.903Z,960.34
2023-11-05T04:14:26.859Z,960.22
2023-11-05T04:15:26.854Z,960.21
2023-11-05T04:16:26.934Z,960.20
2023-11-05T04:17:26.934Z,960.12
2023-11-05T04:18:26.948Z,960.11
2023-11-05T04:19:26.899Z,960.11
2023-11-05T04:20:26.786Z,960.09
2023-11-05T04:21:26.807Z,959.94
2023-11-05T04:22:26.804Z,959.97
2023-11-05T04:23:26.784Z,960.05
2023-11-05T04:24:26.760Z,959.99
2023-11-05T04:25:26.757Z,959.96
2023-11-05T04:26:26.739Z,959.96
2023-11-05T04:27:26.773Z,959.99
2023-11-05T04:28:26.733Z,959.96
2023-11-05T04:29:26.728Z,959.91
2023-11-05T04:30:26.739Z,959.89
2023-11-05T04:31:26.776Z,959.91
2023-11-05T04:32:26.666Z,960.01
2023-11-05T04:33:26.777Z,959.88
2023-11-05T04:34:26.743Z,959.92
2023-11-05T04:35:26.663Z,959.90
2023-11-05T04:36:26.640Z,959.96
2023-11-05T04:37:26.866Z,959.92
2023-11-05T04:38:26.628Z,959.96
2023-11-05T04:39:26.611Z,959.89
2023-11-05T04:40:26.613Z,959.82
2023-11-05T04:41:26.590Z,959.77
2023-11-05T04:42:26.570Z,959.99
2023-11-05T04:43:26.606Z,959.89
2023-11-05T04:44:26.577Z,959.82
2023-11-05T04:45:26.572Z,959.94
2023-11-05T04:46:26.569Z,959.89
2023-11-05T04:47:26.541Z,959.94
2023-11-05T04:48:26.592Z,959.92
2023-11-05T04:49:26.547Z,959.96
2023-11-05T04:50:26.512Z,959.91
2023-11-05T04:51:26.465Z,959.97
2023-11-05T04:52:26.487Z,960.04
2023-11-05T04:53:26.476Z,959.91
2023-11-05T04:54:26.521Z,959.92
2023-11-05T04:55:26.459Z,959.96
2023-11-05T04:56:26.419Z,959.91
2023-11-05T04:57:26.407Z,959.93
2023-11-05T04:58:26.465Z,959.84
2023-11-05T04:59:26.404Z,959.94
2023-11-05T05:00:26.418Z,959.90
2023-11-05T05:01:26.424Z,959.97
2023-11-05T05:02:26.393Z,960.06
2023-11-05T05:03:26.501Z,960.09
2023-11-05T05:04:26.449Z,960.08
2023-11-05T05:05:26.409Z,959.85
2023-11-05T05:06:26.316Z,960.01
2023-11-05T05:07:26.380Z,959.91
2023-11-05T05:08:26.378Z,959.92
2023-11-05T05:09:26.387Z,960.01
2023-11-05T05:10:26.314Z,959.96
2023-11-05T05:11:26.287Z,959.97
2023-11-05T05:12:26.274Z,959.91
2023-11-05T05:13:26.363Z,959.93
2023-11-05T05:14:26.269Z,959.89
2023-11-05T05:15:26.216Z,959.98
2023-11-05T05:16:26.288Z,959.93
2023-11-05T05:17:26.283Z,959.92
2023-11-05T05:18:26.318Z,960.01
2023-11-05T05:19:26.318Z,959.95
2023-11-05T05:20:26.194Z,959.93
2023-11-05T05:21:26.214Z,959.97
2023-11-05T05:22:26.229Z,960.05
2023-11-05T05:23:26.252Z,959.98
2023-11-05T05:24:26.280Z,959.87
2023-11-05T05:25:26.237Z,959.96
2023-11-05T05:26:26.192Z,959.90
2023-11-05T05:27:26.194Z,960.01
2023-11-05T05:28:26.246Z,959.99
2023-11-05T05:29:26.215Z,959.99
2023-11-05T05:30:26.207Z,960.05
2023-11-05T05:31:26.175Z,959.95
2023-11-05T05:32:26.129Z,959.95
2023-11-05T05:33:26.208Z,960.05
2023-11-05T05:34:26.242Z,960.03
2023-11-05T05:35:26.207Z,960.09
2023-11-05T05:36:26.159Z,960.06
2023-11-05T05:37:26.070Z,960.18
2023-11-05T05:38:26.017Z,960.01
2023-11-05T05:39:26.175Z,960.08
2023-11-05T05:40:26.090Z,960.04
2023-11-05T05:41:26.084Z,960.14
2023-11-05T05:42:26.095Z,960.10
2023-11-05T05:43:26.025Z,960.11
2023-11-05T05:44:26.109Z,960.08
2023-11-05T05:45:25.904Z,960.14
2023-11-05T05:46:26.403Z,960.23
2023-11-05T05:47:25.919Z,960.38
2023-11-05T05:48:25.896Z,960.09
2023-11-05T05:49:25.912Z,960.05
2023-11-05T05:50:26.044Z,960.20
2023-11-05T05:51:25.855Z,960.15
2023-11-05T05:52:25.875Z,960.11
2023-11-05T05:53:25.793Z,960.33
2023-11-05T05:54:25.834Z,960.07
2023-11-05T05:55:25.795Z,960.15
2023-11-05T05:56:25.774Z,960.05
2023-11-05T05:57:25.719Z,960.13
2023-11-05T05:58:25.745Z,960.10
2023-11-05T05:59:25.776Z,960.10
2023-11-05T06:00:25.810Z,960.08
2023-11-05T06:01:25.771Z,960.08
2023-11-05T06:02:25.700Z,960.11
2023-11-05T06:03:25.688Z,960.34
2023-11-05T06:04:25.749Z,960.18
2023-11-05T06:05:25.681Z,960.11
2023-11-05T06:06:26.052Z,960.25
2023-11-05T06:07:25.650Z,960.19
2023-11-05T06:08:25.635Z,960.13
2023-11-05T06:09:25.655Z,960.06
2023-11-05T06:10:25.626Z,960.22
2023-11-05T06:11:25.603Z,960.24
2023-11-05T06:12:25.625Z,960.46
2023-11-05T06:13:25.623Z,960.27
2023-11-05T06:14:33.077Z,960.33
2023-11-05T06:15:25.582Z,960.16
2023-11-05T06:16:25.548Z,960.33
2023-11-05T06:17:25.522Z,960.20
2023-11-05T06:18:25.591Z,960.18
2023-11-05T06:19:25.548Z,960.36
2023-11-05T06:20:25.496Z,960.21
2023-11-05T06:21:25.504Z,960.45
2023-11-05T06:22:25.501Z,960.27
2023-11-05T06:23:25.469Z,960.27
2023-11-05T06:24:25.448Z,960.24
2023-11-05T06:25:25.474Z,960.31
2023-11-05T06:26:25.542Z,960.64
2023-11-05T06:27:25.434Z,960.32
2023-11-05T06:28:25.465Z,960.28
2023-11-05T06:29:25.403Z,960.25
2023-11-05T06:30:25.384Z,960.40
2023-11-05T06:31:25.439Z,960.45
2023-11-05T06:32:25.392Z,960.26
2023-11-05T06:33:25.424Z,960.38
2023-11-05T06:34:25.452Z,960.41
2023-11-05T06:35:25.387Z,960.55
2023-11-05T06:36:25.337Z,960.42
2023-11-05T06:37:25.377Z,960.39
2023-11-05T06:38:25.305Z,960.52
2023-11-05T06:39:25.363Z,960.48
2023-11-05T06:40:25.356Z,960.40
2023-11-05T06:41:25.273Z,960.39
2023-11-05T06:42:25.271Z,960.32
2023-11-05T06:43:25.271Z,960.30
2023-11-05T06:44:25.239Z,960.50
2023-11-05T06:45:25.238Z,960.43
2023-11-05T06:46:25.244Z,960.46
2023-11-05T06:47:25.254Z,960.53
2023-11-05T06:48:25.314Z,960.50
2023-11-05T06:49:25.265Z,960.53
2023-11-05T06:50:25.182Z,960.69
2023-11-05T06:51:25.185Z,960.54
2023-11-05T06:52:25.217Z,960.48
2023-11-05T06:53:25.146Z,960.60
2023-11-05T06:54:25.128Z,960.57
2023-11-05T06:55:25.206Z,960.58
2023-11-05T06:56:25.111Z,960.49
2023-11-05T06:57:25.089Z,960.57
2023-11-05T06:58:25.140Z,960.52
2023-11-05T06:59:25.107Z,960.66
2023-11-05T07:00:25.062Z,960.57
2023-11-05T07:01:25.050Z,960.75
2023-11-05T07:02:25.079Z,960.67
2023-11-05T07:03:25.561Z,960.63
2023-11-05T07:04:25.115Z,960.57
2023-11-05T07:05:25.079Z,960.74
2023-11-05T07:06:25.040Z,960.55
2023-11-05T07:07:24.983Z,960.66
2023-11-05T07:08:24.970Z,960.57
2023-11-05T07:09:25.036Z,960.76
2023-11-05T07:10:25.020Z,960.64
2023-11-05T07:11:24.970Z,960.63
2023-11-05T07:12:24.974Z,960.64
2023-11-05T07:13:25.004Z,960.68
2023-11-05T07:14:24.946Z,960.71
2023-11-05T07:15:24.901Z,960.61
2023-11-05T07:16:24.939Z,960.65
2023-11-05T07:17:24.885Z,960.66
2023-11-05T07:18:24.899Z,960.88
2023-11-05T07:19:24.891Z,960.65
2023-11-05T07:20:24.894Z,960.63
2023-11-05T07:21:24.837Z,960.61
2023-11-05T07:22:24.856Z,960.66
2023-11-05T07:23:24.971Z,960.68
2023-11-05T07:24:24.791Z,960.71
2023-11-05T07:25:24.808Z,960.65
2023-11-05T07:26:24.816Z,960.83
2023-11-05T07:27:24.785Z,960.65
2023-11-05T07:28:24.784Z,960.67
2023-11-05T07:29:24.736Z,960.67
2023-11-05T07:30:24.763Z,960.73
2023-11-05T07:31:24.816Z,960.72
2023-11-05T07:32:24.735Z,960.75
2023-11-05T07:33:24.763Z,960.79
2023-11-05T07:34:24.754Z,960.68
2023-11-05T07:35:24.705Z,960.76
2023-11-05T07:36:24.687Z,960.76
2023-11-05T07:37:24.666Z,960.74
2023-11-05T07:38:24.660Z,960.74
2023-11-05T07:39:24.696Z,960.81
2023-11-05T07:40:24.678Z,960.86
2023-11-05T07:41:24.594Z,960.87
2023-11-05T07:42:24.585Z,960.75
2023-11-05T07:43:24.657Z,960.75
2023-11-05T07:44:24.588Z,960.78
2023-11-05T07:45:24.579Z,960.88
2023-11-05T07:46:24.609Z,960.86
2023-11-05T07:47:25.867Z,960.84
2023-11-05T07:48:24.645Z,961.08
2023-11-05T07:49:24.584Z,960.99
2023-11-05T07:50:24.528Z,960.91
2023-11-05T07:51:24.513Z,960.97
2023-11-05T07:52:26.660Z,961.01
2023-11-05T07:53:24.477Z,961.06
2023-11-05T07:54:24.462Z,960.97
2023-11-05T07:55:24.523Z,961.19
2023-11-05T07:56:24.523Z,961.27
2023-11-05T07:57:24.447Z,961.15
2023-11-05T07:58:24.456Z,961.13
2023-11-05T07:59:24.401Z,960.98
2023-11-05T08:00:24.474Z,961.37
2023-11-05T08:01:24.414Z,961.08
2023-11-05T08:02:24.443Z,961.12
2023-11-05T08:03:24.452Z,961.03
2023-11-05T08:04:24.407Z,961.11
2023-11-05T08:05:24.391Z,961.18
2023-11-05T08:06:24.350Z,961.22
2023-11-05T08:07:24.358Z,961.19
2023-11-05T08:08:24.342Z,961.28
2023-11-05T08:09:24.303Z,961.36
2023-11-05T08:10:24.351Z,961.23
2023-11-05T08:11:24.269Z,961.23
2023-11-05T08:12:24.271Z,961.34
2023-11-05T08:13:24.340Z,961.28
2023-11-05T08:14:24.268Z,961.27
2023-11-05T08:15:24.349Z,961.25
2023-11-05T08:16:24.263Z,961.41
2023-11-05T08:17:24.339Z,961.25
2023-11-05T08:18:24.260Z,961.25
2023-11-05T08:19:24.254Z,961.26
2023-11-05T08:20:24.920Z,961.19
2023-11-05T08:21:24.217Z,961.41
2023-11-05T08:22:24.208Z,961.34
2023-11-05T08:23:24.144Z,961.43
2023-11-05T08:24:24.140Z,961.30
2023-11-05T08:25:24.537Z,961.33
2023-11-05T08:26:25.785Z,961.43
2023-11-05T08:27:24.109Z,961.50
2023-11-05T08:28:26.414Z,961.38
2023-11-05T08:29:24.152Z,961.32
2023-11-05T08:30:24.105Z,961.47
2023-11-05T08:31:24.127Z,961.45
2023-11-05T08:32:24.062Z,961.50
2023-11-05T08:33:24.177Z,961.83
2023-11-05T08:34:24.095Z,961.47
2023-11-05T08:35:24.021Z,961.45
2023-11-05T08:36:24.009Z,961.42
2023-11-05T08:37:24.070Z,961.44
2023-11-05T08:38:24.100Z,961.42
2023-11-05T08:39:24.025Z,961.74
2023-11-05T08:40:24.018Z,961.47
2023-11-05T08:41:23.968Z,961.40
2023-11-05T08:42:23.946Z,961.45
2023-11-05T08:43:24.329Z,961.48
2023-11-05T08:44:23.970Z,961.44
2023-11-05T08:45:23.919Z,961.50
2023-11-05T08:46:23.934Z,961.43
2023-11-05T08:47:23.896Z,961.57
2023-11-05T08:48:23.884Z,961.46
2023-11-05T08:49:23.944Z,961.53
2023-11-05T08:50:23.902Z,961.60
2023-11-05T08:51:23.928Z,961.58
2023-11-05T08:52:23.907Z,961.56
2023-11-05T08:53:23.837Z,961.82
2023-11-05T08:54:23.826Z,961.65
2023-11-05T08:55:23.950Z,961.82
2023-11-05T08:56:23.861Z,961.78
2023-11-05T08:57:23.849Z,961.77
2023-11-05T08:58:23.832Z,961.85
2023-11-05T08:59:23.774Z,961.75
2023-11-05T09:00:23.761Z,961.84
2023-11-05T09:01:23.835Z,961.89
2023-11-05T09:02:23.813Z,961.84
2023-11-05T09:03:23.909Z,961.85
2023-11-05T09:04:24.098Z,961.97
2023-11-05T09:05:23.732Z,961.99
2023-11-05T09:06:23.756Z,962.10
2023-11-05T09:07:23.738Z,961.97
2023-11-05T09:08:23.692Z,961.94
2023-11-05T09:09:23.680Z,962.08
2023-11-05T09:10:23.741Z,961.97
2023-11-05T09:11:23.641Z,962.31
2023-11-05T09:12:23.629Z,962.17
2023-11-05T09:13:25.163Z,962.18
2023-11-05T09:14:23.659Z,962.20
2023-11-05T09:15:23.669Z,962.18
2023-11-05T09:16:23.637Z,961.92
2023-11-05T09:17:23.569Z,962.23
2023-11-05T09:18:23.635Z,962.21
2023-11-05T09:19:23.633Z,962.26
2023-11-05T09:20:23.605Z,962.32
2023-11-05T09:21:23.637Z,962.35
2023-11-05T09:22:23.574Z,962.45
2023-11-05T09:23:23.508Z,962.42
2023-11-05T09:24:23.569Z,962.47
2023-11-05T09:25:23.528Z,962.48
2023-11-05T09:26:23.529Z,962.44
2023-11-05T09:27:23.493Z,962.53
2023-11-05T09:28:23.466Z,962.66
2023-11-05T09:29:23.525Z,962.64
2023-11-05T09:30:23.472Z,962.59
2023-11-05T09:31:23.517Z,962.61
2023-11-05T09:32:23.508Z,962.66
2023-11-05T09:33:23.441Z,962.68
2023-11-05T09:34:23.460Z,962.83
2023-11-05T09:35:23.392Z,962.72
2023-11-05T09:36:23.377Z,962.88
2023-11-05T09:37:23.466Z,962.88
2023-11-05T09:38:23.433Z,962.79
2023-11-05T09:39:23.343Z,962.85
2023-11-05T09:40:23.372Z,962.77
2023-11-05T09:41:23.335Z,962.84
2023-11-05T09:42:23.409Z,962.95
2023-11-05T09:43:23.341Z,963.01
2023-11-05T09:44:23.399Z,962.94
2023-11-05T09:45:23.297Z,962.95
2023-11-05T09:46:23.271Z,963.02
2023-11-05T09:47:23.339Z,962.95
2023-11-05T09:48:23.303Z,963.12
2023-11-05T09:49:23.306Z,963.12
2023-11-05T09:50:23.259Z,963.17
2023-11-05T09:51:23.236Z,963.11
2023-11-05T09:52:23.216Z,963.13
2023-11-05T09:53:23.195Z,963.23
2023-11-05T09:54:24.203Z,963.34
2023-11-05T09:55:23.262Z,963.20
2023-11-05T09:56:23.223Z,963.20
2023-11-05T09:57:23.199Z,963.31
2023-11-05T09:58:23.139Z,963.18
2023-11-05T09:59:23.119Z,963.22
2023-11-05T10:00:23.119Z,963.37
2023-11-05T10:01:23.151Z,963.24
2023-11-05T10:02:23.151Z,963.36
2023-11-05T10:03:23.152Z,963.41
2023-11-05T10:04:23.135Z,963.31
2023-11-05T10:05:23.140Z,963.29
2023-11-05T10:06:23.082Z,963.34
2023-11-05T10:07:23.122Z,963.31
2023-11-05T10:08:23.058Z,963.45
2023-11-05T10:09:23.015Z,963.37
2023-11-05T10:10:23.098Z,963.52
2023-11-05T10:11:23.040Z,963.41
2023-11-05T10:12:23.020Z,963.55
2023-11-05T10:13:23.093Z,963.47
2023-11-05T10:14:22.973Z,963.53
2023-11-05T10:15:23.021Z,963.59
2023-11-05T10:16:22.966Z,963.55
2023-11-05T10:17:22.961Z,963.56
2023-11-05T10:18:23.026Z,963.63
2023-11-05T10:19:22.990Z,963.60
2023-11-05T10:20:23.006Z,963.61
2023-11-05T10:21:22.925Z,963.61
2023-11-05T10:22:22.898Z,963.62
2023-11-05T10:23:22.902Z,963.61
2023-11-05T10:24:22.869Z,963.60
2023-11-05T10:25:24.570Z,963.61
2023-11-05T10:26:22.895Z,963.64
2023-11-05T10:27:22.807Z,963.72
2023-11-05T10:28:23.031Z,963.72
2023-11-05T10:29:22.822Z,963.73
2023-11-05T10:30:22.822Z,963.80
2023-11-05T10:31:22.850Z,963.80
2023-11-05T10:32:22.826Z,963.83
2023-11-05T10:33:22.848Z,963.83
2023-11-05T10:34:22.787Z,963.85
2023-11-05T10:35:22.813Z,963.88
2023-11-05T10:36:22.741Z,963.96
2023-11-05T10:37:24.086Z,963.94
2023-11-05T10:38:22.725Z,963.99
2023-11-05T10:39:22.701Z,964.03
2023-11-05T10:40:22.743Z,964.04
2023-11-05T10:41:22.719Z,964.06
2023-11-05T10:42:22.678Z,964.12
2023-11-05T10:43:25.279Z,964.08
2023-11-05T10:44:22.667Z,964.04
2023-11-05T10:45:22.666Z,964.14
2023-11-05T10:46:22.859Z,964.10
2023-11-05T10:47:22.620Z,964.16
2023-11-05T10:48:22.668Z,964.22
2023-11-05T10:49:23.851Z,964.25
2023-11-05T10:50:22.710Z,964.26
2023-11-05T10:51:22.574Z,964.22
2023-11-05T10:52:29.957Z,964.29
2023-11-05T10:53:22.605Z,964.40
2023-11-05T10:55:23.893Z,964.36
2023-11-05T10:56:22.498Z,964.43
2023-11-05T10:57:22.558Z,964.47
2023-11-05T10:58:24.895Z,964.45
2023-11-05T10:59:22.476Z,964.45
2023-11-05T11:00:22.533Z,964.53
2023-11-05T11:01:24.021Z,964.55
2023-11-05T11:02:22.472Z,964.60
2023-11-05T11:03:22.558Z,964.48
2023-11-05T11:04:22.578Z,964.61
2023-11-05T11:05:22.550Z,964.57
2023-11-05T11:06:22.403Z,964.55
2023-11-05T11:07:22.435Z,964.68
2023-11-05T11:08:22.418Z,964.61
2023-11-05T11:09:22.411Z,964.70
2023-11-05T11:10:22.413Z,964.66
2023-11-05T11:11:22.377Z,964.78
2023-11-05T11:12:22.343Z,964.71
2023-11-05T11:13:22.346Z,964.83
2023-11-05T11:14:22.333Z,964.81
2023-11-05T11:15:22.331Z,964.89
2023-11-05T11:16:22.307Z,964.78
2023-11-05T11:17:22.312Z,964.76
2023-11-05T11:18:22.466Z,964.97
2023-11-05T11:19:22.460Z,964.92
2023-11-05T11:20:22.263Z,964.80
2023-11-05T11:21:22.233Z,964.77
2023-11-05T11:22:22.309Z,964.83
2023-11-05T11:23:22.247Z,964.85
2023-11-05T11:24:22.215Z,964.89
2023-11-05T11:25:22.252Z,964.81
2023-11-05T11:26:22.241Z,964.93
2023-11-05T11:27:22.167Z,964.88
2023-11-05T11:28:22.204Z,964.99
2023-11-05T11:29:22.281Z,964.94
2023-11-05T11:30:22.146Z,964.86
2023-11-05T11:31:22.162Z,964.95
2023-11-05T11:32:22.141Z,964.96
2023-11-05T11:33:22.247Z,965.13
2023-11-05T11:34:22.185Z,965.03
2023-11-05T11:35:22.142Z,965.05
2023-11-05T11:36:22.112Z,965.09
2023-11-05T11:37:22.121Z,965.14
2023-11-05T11:38:22.070Z,965.12
2023-11-05T11:39:22.061Z,965.11
2023-11-05T11:40:22.055Z,965.11
2023-11-05T11:41:22.026Z,965.39
2023-11-05T11:42:22.056Z,965.06
2023-11-05T11:43:22.017Z,965.35
2023-11-05T11:44:21.996Z,965.07
2023-11-05T11:45:21.991Z,965.06
2023-11-05T11:46:21.981Z,965.15
2023-11-05T11:47:21.973Z,965.27
2023-11-05T11:48:21.961Z,965.15
2023-11-05T11:49:21.989Z,965.10
2023-11-05T11:50:21.925Z,965.23
2023-11-05T11:51:21.919Z,965.20
2023-11-05T11:52:21.970Z,965.42
2023-11-05T11:53:21.896Z,965.38
2023-11-05T11:54:21.982Z,965.22
2023-11-05T11:55:21.956Z,965.27
2023-11-05T11:56:21.871Z,965.17
2023-11-05T11:57:21.901Z,965.25
2023-11-05T11:58:21.901Z,965.24
2023-11-05T11:59:21.844Z,965.26
2023-11-05T12:00:21.856Z,965.27
2023-11-05T12:01:21.833Z,965.32
2023-11-05T12:02:21.840Z,965.30
2023-11-05T12:04:21.800Z,965.56
2023-11-05T12:05:21.826Z,965.45
2023-11-05T12:06:21.817Z,965.38
2023-11-05T12:07:21.777Z,965.68
2023-11-05T12:08:21.779Z,965.49
2023-11-05T12:09:21.739Z,965.44
2023-11-05T12:10:21.742Z,965.48
2023-11-05T12:11:21.776Z,965.66
2023-11-05T12:12:21.741Z,965.47
2023-11-05T12:13:21.730Z,965.66
2023-11-05T12:14:21.692Z,965.59
2023-11-05T12:15:21.678Z,965.57
2023-11-05T12:16:21.745Z,965.66
2023-11-05T12:17:21.655Z,965.71
2023-11-05T12:18:21.717Z,965.83
2023-11-05T12:19:21.725Z,965.63
2023-11-05T12:20:21.619Z,965.70
2023-11-05T12:21:21.614Z,965.90
2023-11-05T12:22:23.624Z,965.75
2023-11-05T12:23:21.582Z,965.80
2023-11-05T12:24:21.590Z,965.76
2023-11-05T12:25:21.643Z,965.95
2023-11-05T12:26:21.556Z,965.91
2023-11-05T12:27:21.550Z,965.92
2023-11-05T12:28:23.525Z,965.96
2023-11-05T12:29:21.539Z,966.08
2023-11-05T12:30:21.505Z,965.98